createdAt,value
2019-06-07T00:01:11.316Z,3.30
2019-06-07T00:03:41.942Z,2.92
2019-06-07T00:06:13.019Z,3.27
2019-06-07T00:08:38.871Z,2.83
2019-06-07T00:11:07.743Z,2.90
2019-06-07T00:13:35.120Z,3.42
2019-06-07T00:16:02.381Z,2.98
2019-06-07T00:18:29.465Z,2.83
2019-06-07T00:20:56.852Z,2.98
2019-06-07T00:23:24.439Z,3.22
2019-06-07T00:25:51.564Z,3.10
2019-06-07T00:28:20.033Z,3.50
2019-06-07T00:30:52.334Z,3.00
2019-06-07T00:33:20.549Z,3.70
2019-06-07T00:35:45.695Z,2.95
2019-06-07T00:38:14.279Z,3.40
2019-06-07T00:40:41.634Z,3.45
2019-06-07T00:43:13.349Z,3.00
2019-06-07T00:45:38.263Z,3.20
2019-06-07T00:48:05.581Z,2.95
2019-06-07T00:50:33.152Z,3.52
2019-06-07T00:53:20.433Z,3.30
2019-06-07T00:55:30.213Z,3.20
2019-06-07T00:57:57.213Z,3.27
2019-06-07T01:00:25.652Z,3.05
2019-06-07T01:02:53.077Z,3.05
2019-06-07T01:05:28.233Z,2.83
2019-06-07T01:07:49.296Z,2.67
2019-06-07T01:10:34.511Z,2.50
2019-06-07T01:12:46.680Z,2.55
2019-06-07T01:15:17.531Z,3.37
2019-06-07T01:18:32.373Z,2.17
2019-06-07T01:20:14.145Z,2.60
2019-06-07T01:22:41.324Z,2.42
2019-06-07T01:25:08.913Z,3.10
2019-06-07T01:27:35.885Z,2.60
2019-06-07T01:30:04.891Z,2.50
2019-06-07T01:32:32.028Z,2.65
2019-06-07T01:34:59.587Z,2.83
2019-06-07T01:37:27.935Z,2.58
2019-06-07T01:39:55.695Z,2.50
2019-06-07T01:42:24.673Z,2.40
2019-06-07T01:44:52.030Z,2.67
2019-06-07T01:47:21.246Z,2.70
2019-06-07T01:49:48.203Z,2.77
2019-06-07T01:52:16.612Z,2.90
2019-06-07T01:54:58.169Z,2.58
2019-06-07T01:57:30.953Z,2.50
2019-06-07T01:59:42.496Z,2.58
2019-06-07T02:02:09.471Z,2.92
2019-06-07T02:04:36.588Z,2.70
2019-06-07T02:07:03.691Z,2.72
2019-06-07T02:09:31.950Z,2.37
2019-06-07T02:11:59.535Z,2.65
2019-06-07T02:14:29.517Z,2.92
2019-06-07T02:16:55.806Z,3.00
2019-06-07T02:19:24.294Z,2.25
2019-06-07T02:21:52.437Z,2.47
2019-06-07T02:24:24.443Z,2.67
2019-06-07T02:26:48.383Z,2.87
2019-06-07T02:29:15.315Z,2.80
2019-06-07T02:31:43.401Z,3.00
2019-06-07T02:34:10.787Z,2.80
2019-06-07T02:36:41.527Z,2.70
2019-06-07T02:39:07.201Z,2.80
2019-06-07T02:41:39.350Z,2.92
2019-06-07T02:44:04.635Z,2.60
2019-06-07T02:46:40.059Z,2.65
2019-06-07T02:49:00.650Z,3.00
2019-06-07T02:51:33.546Z,2.47
2019-06-07T02:53:57.178Z,2.47
2019-06-07T02:56:42.172Z,2.90
2019-06-07T02:58:53.423Z,2.67
2019-06-07T03:01:20.487Z,2.77
2019-06-07T03:03:47.789Z,2.80
2019-06-07T03:06:15.464Z,2.72
2019-06-07T03:08:44.370Z,2.90
2019-06-07T03:11:13.851Z,3.10
2019-06-07T03:13:42.342Z,2.87
2019-06-07T03:16:11.285Z,2.45
2019-06-07T03:19:05.733Z,3.08
2019-06-07T03:21:36.357Z,2.80
2019-06-07T03:24:03.984Z,2.60
2019-06-07T03:26:42.386Z,3.17
2019-06-07T03:29:01.339Z,3.10
2019-06-07T03:31:31.805Z,3.33
2019-06-07T03:33:57.207Z,2.95
2019-06-07T03:36:25.989Z,3.58
2019-06-07T03:38:53.886Z,3.50
2019-06-07T03:41:21.039Z,3.20
2019-06-07T03:43:48.458Z,3.20
2019-06-07T03:46:15.403Z,4.28
2019-06-07T03:48:42.453Z,3.60
2019-06-07T03:51:24.194Z,3.17
2019-06-07T03:53:40.774Z,2.70
2019-06-07T03:56:08.511Z,3.12
2019-06-07T03:58:48.297Z,4.08
2019-06-07T04:01:05.001Z,3.83
2019-06-07T04:03:41.767Z,4.10
2019-06-07T04:06:02.822Z,3.72
2019-06-07T04:08:30.871Z,4.33
2019-06-07T04:11:00.586Z,4.10
2019-06-07T04:13:30.392Z,3.52
2019-06-07T04:15:56.791Z,3.92
2019-06-07T04:18:23.739Z,5.90
2019-06-07T04:20:50.692Z,4.33
2019-06-07T04:23:27.930Z,3.75
2019-06-07T04:25:47.135Z,4.03
2019-06-07T04:28:14.095Z,5.08
2019-06-07T04:30:43.124Z,4.12
2019-06-07T04:33:10.968Z,4.20
2019-06-07T04:35:40.005Z,4.40
2019-06-07T04:38:08.020Z,4.50
2019-06-07T04:40:36.855Z,3.27
2019-06-07T04:43:04.929Z,3.42
2019-06-07T04:45:41.955Z,3.75
2019-06-07T04:48:05.549Z,3.60
2019-06-07T04:50:34.286Z,2.65
2019-06-07T04:53:02.953Z,3.25
2019-06-07T04:55:31.489Z,3.05
2019-06-07T04:57:58.931Z,3.12
2019-06-07T05:02:59.408Z,2.77
2019-06-07T05:05:26.828Z,2.70
2019-06-07T05:07:53.913Z,2.60
2019-06-07T05:10:22.059Z,2.45
2019-06-07T05:12:49.124Z,2.15
2019-06-07T05:15:16.185Z,2.52
2019-06-07T05:17:44.936Z,2.25
2019-06-07T05:20:12.345Z,1.90
2019-06-07T05:22:44.445Z,2.80
2019-06-07T05:25:09.078Z,2.83
2019-06-07T05:27:38.531Z,2.55
2019-06-07T05:30:13.608Z,2.05
2019-06-07T05:32:37.528Z,1.95
2019-06-07T05:35:05.016Z,1.90
2019-06-07T05:37:33.788Z,2.40
2019-06-07T05:40:00.954Z,1.67
2019-06-07T05:42:28.045Z,2.20
2019-06-07T05:44:55.127Z,1.70
2019-06-07T05:47:22.467Z,1.55
2019-06-07T05:49:49.483Z,1.50
2019-06-07T05:52:16.558Z,1.60
2019-06-07T05:54:46.787Z,2.10
2019-06-07T05:57:12.515Z,1.90
2019-06-07T05:59:42.113Z,1.82
2019-06-07T06:02:21.872Z,1.75
2019-06-07T06:04:39.397Z,1.87
2019-06-07T06:07:06.335Z,1.75
2019-06-07T06:09:35.349Z,1.47
2019-06-07T06:12:02.746Z,1.40
2019-06-07T06:14:30.150Z,2.33
2019-06-07T06:16:57.231Z,1.30
2019-06-07T06:19:24.290Z,1.20
2019-06-07T06:21:51.239Z,1.12
2019-06-07T06:24:18.284Z,2.47
2019-06-07T06:26:51.268Z,1.30
2019-06-07T06:29:14.683Z,1.30
2019-06-07T06:32:35.891Z,3.55
2019-06-07T06:34:11.923Z,2.62
2019-06-07T06:36:39.915Z,1.55
2019-06-07T06:39:08.079Z,1.25
2019-06-07T06:41:46.097Z,3.10
2019-06-07T06:44:04.625Z,2.02
2019-06-07T06:46:39.031Z,1.25
2019-06-07T06:49:01.127Z,3.22
2019-06-07T06:51:28.074Z,2.95
2019-06-07T06:53:55.334Z,1.55
2019-06-07T06:56:22.355Z,2.15
2019-06-07T06:59:26.810Z,1.55
2019-06-07T07:01:18.371Z,1.47
2019-06-07T07:04:06.830Z,1.37
2019-06-07T07:06:26.067Z,1.62
2019-06-07T07:08:47.877Z,1.70
2019-06-07T07:11:14.870Z,1.20
2019-06-07T07:13:44.472Z,1.37
2019-06-07T07:16:10.690Z,1.30
2019-06-07T07:18:38.076Z,1.30
2019-06-07T07:21:05.135Z,1.55
2019-06-07T07:23:32.483Z,0.93
2019-06-07T07:26:00.292Z,1.30
2019-06-07T07:28:27.799Z,1.22
2019-06-07T07:30:57.059Z,1.10
2019-06-07T07:33:24.335Z,1.10
2019-06-07T07:36:15.858Z,1.10
2019-06-07T07:38:20.591Z,1.10
2019-06-07T07:41:01.600Z,1.50
2019-06-07T07:43:16.651Z,1.55
2019-06-07T07:45:45.931Z,1.47
2019-06-07T07:48:18.069Z,1.90
2019-06-07T07:50:45.127Z,1.50
2019-06-07T07:53:11.991Z,2.02
2019-06-07T07:55:38.953Z,1.55
2019-06-07T07:58:06.046Z,1.75
2019-06-07T08:00:52.352Z,1.65
2019-06-07T08:03:04.482Z,1.77
2019-06-07T08:05:42.338Z,1.60
2019-06-07T08:08:05.356Z,1.67
2019-06-07T08:10:29.770Z,1.98
2019-06-07T08:13:21.949Z,1.90
2019-06-07T08:15:25.696Z,1.57
2019-06-07T08:17:58.036Z,1.75
2019-06-07T08:20:22.011Z,1.87
2019-06-07T08:22:49.982Z,1.82
2019-06-07T08:25:17.630Z,1.90
2019-06-07T08:27:44.714Z,1.98
2019-06-07T08:30:47.234Z,1.98
2019-06-07T08:32:43.096Z,1.70
2019-06-07T08:35:11.590Z,1.87
2019-06-07T08:38:14.829Z,1.70
2019-06-07T08:40:09.285Z,1.80
2019-06-07T08:42:39.175Z,1.77
2019-06-07T08:45:06.194Z,1.65
2019-06-07T08:47:33.265Z,1.70
2019-06-07T08:50:07.264Z,1.67
2019-06-07T08:52:30.850Z,1.80
2019-06-07T08:55:01.682Z,1.62
2019-06-07T08:57:27.111Z,1.98
2019-06-07T08:59:56.523Z,2.05
2019-06-07T09:02:24.324Z,1.70
2019-06-07T09:04:54.708Z,1.62
2019-06-07T09:07:22.141Z,1.90
2019-06-07T09:09:49.535Z,1.95
2019-06-07T09:12:16.611Z,1.72
2019-06-07T09:14:59.958Z,2.15
2019-06-07T09:17:13.845Z,1.60
2019-06-07T09:19:40.891Z,2.15
2019-06-07T09:22:11.083Z,1.47
2019-06-07T09:24:37.149Z,1.60
2019-06-07T09:27:07.721Z,1.60
2019-06-07T09:29:34.239Z,1.75
2019-06-07T09:32:05.814Z,1.82
2019-06-07T09:34:30.467Z,1.60
2019-06-07T09:37:03.329Z,1.60
2019-06-07T09:39:27.167Z,2.25
2019-06-07T09:41:54.231Z,1.65
2019-06-07T09:44:26.162Z,1.30
2019-06-07T09:47:14.185Z,1.98
2019-06-07T09:49:31.396Z,1.60
2019-06-07T09:51:48.759Z,1.85
2019-06-07T09:55:02.652Z,1.47
2019-06-07T09:56:46.342Z,1.60
2019-06-07T09:59:13.852Z,2.83
2019-06-07T10:01:40.903Z,1.98
2019-06-07T10:04:16.387Z,1.52
2019-06-07T10:06:36.867Z,1.32
2019-06-07T10:11:35.746Z,1.30
2019-06-07T10:14:03.023Z,1.30
2019-06-07T10:16:45.809Z,1.47
2019-06-07T10:18:59.327Z,1.30
2019-06-07T10:21:26.285Z,1.40
2019-06-07T10:23:53.262Z,1.30
2019-06-07T10:26:20.245Z,1.40
2019-06-07T10:28:47.329Z,1.20
2019-06-07T10:31:14.387Z,1.50
2019-06-07T10:33:41.653Z,1.50
2019-06-07T10:36:08.749Z,1.10
2019-06-07T10:38:35.799Z,1.10
2019-06-07T10:41:03.005Z,1.25
2019-06-07T10:43:30.284Z,1.30
2019-06-07T10:45:57.628Z,1.00
2019-06-07T10:48:25.187Z,1.10
2019-06-07T10:50:52.429Z,1.07
2019-06-07T10:53:19.378Z,1.10
2019-06-07T10:55:46.732Z,1.40
2019-06-07T10:58:13.769Z,1.40
2019-06-07T11:00:40.868Z,1.07
2019-06-07T11:03:08.090Z,1.40
2019-06-07T11:05:35.144Z,1.37
2019-06-07T11:08:02.263Z,1.35
2019-06-07T11:10:29.414Z,1.37
2019-06-07T11:12:56.815Z,1.62
2019-06-07T11:15:24.132Z,1.37
2019-06-07T11:17:51.831Z,1.75
2019-06-07T11:20:19.077Z,1.32
2019-06-07T11:22:46.031Z,1.45
2019-06-07T11:25:14.706Z,1.27
2019-06-07T11:27:42.729Z,1.50
2019-06-07T11:30:12.448Z,1.65
2019-06-07T11:32:39.598Z,1.30
2019-06-07T11:35:08.706Z,1.20
2019-06-07T11:37:35.757Z,1.25
2019-06-07T11:40:03.447Z,1.40
2019-06-07T11:42:30.563Z,1.27
2019-06-07T11:44:58.033Z,1.52
2019-06-07T11:47:25.397Z,2.02
2019-06-07T11:49:52.360Z,1.20
2019-06-07T11:52:19.442Z,1.00
2019-06-07T11:54:48.160Z,1.30
2019-06-07T11:57:15.420Z,1.40
2019-06-07T11:59:43.440Z,1.20
2019-06-07T12:02:11.433Z,1.32
2019-06-07T12:04:38.802Z,1.32
2019-06-07T12:07:05.973Z,1.20
2019-06-07T12:09:34.349Z,1.30
2019-06-07T12:12:01.450Z,1.25
2019-06-07T12:14:28.515Z,1.60
2019-06-07T12:16:55.488Z,1.27
2019-06-07T12:19:22.856Z,1.42
2019-06-07T12:21:49.995Z,1.32
2019-06-07T12:24:19.386Z,1.40
2019-06-07T12:26:46.449Z,1.30
2019-06-07T12:29:14.866Z,1.12
2019-06-07T12:31:41.968Z,1.42
2019-06-07T12:34:08.955Z,1.20
2019-06-07T12:36:35.971Z,1.35
2019-06-07T12:39:05.829Z,1.40
2019-06-07T12:41:32.971Z,1.50
2019-06-07T12:43:59.958Z,1.47
2019-06-07T12:46:28.680Z,1.52
2019-06-07T12:48:56.128Z,1.47
2019-06-07T12:51:23.600Z,1.20
2019-06-07T12:53:50.644Z,1.70
2019-06-07T12:56:17.838Z,1.37
2019-06-07T12:58:44.901Z,1.07
2019-06-07T13:01:11.864Z,1.60
2019-06-07T13:03:39.829Z,1.27
2019-06-07T13:06:06.781Z,1.50
2019-06-07T13:08:34.052Z,1.27
2019-06-07T13:11:15.677Z,1.20
2019-06-07T13:13:30.519Z,1.50
2019-06-07T13:15:57.547Z,6.35
2019-06-07T13:18:25.243Z,2.02
2019-06-07T13:20:55.377Z,1.50
2019-06-07T13:23:22.587Z,1.30
2019-06-07T13:25:49.933Z,1.40
2019-06-07T13:28:18.900Z,1.37
2019-06-07T13:30:46.174Z,1.50
2019-06-07T13:33:13.271Z,1.62
2019-06-07T13:35:40.384Z,1.42
2019-06-07T13:38:07.930Z,1.30
2019-06-07T13:40:34.944Z,1.32
2019-06-07T13:43:02.017Z,1.00
2019-06-07T13:45:29.003Z,1.30
2019-06-07T13:47:56.435Z,1.17
2019-06-07T13:50:24.120Z,1.35
2019-06-07T13:52:51.647Z,1.35
2019-06-07T13:55:19.961Z,1.15
2019-06-07T13:57:47.189Z,1.10
2019-06-07T14:00:14.833Z,1.32
2019-06-07T14:02:41.854Z,1.30
2019-06-07T14:05:09.080Z,1.25
2019-06-07T14:07:36.403Z,1.10
2019-06-07T14:10:04.317Z,1.87
2019-06-07T14:12:32.304Z,1.22
2019-06-07T14:14:59.650Z,1.07
2019-06-07T14:17:28.339Z,1.10
2019-06-07T14:19:55.873Z,1.20
2019-06-07T14:22:24.763Z,1.55
2019-06-07T14:24:52.024Z,1.32
2019-06-07T14:27:18.991Z,1.20
2019-06-07T14:29:46.125Z,1.60
2019-06-07T14:32:13.593Z,1.30
2019-06-07T14:34:40.882Z,1.42
2019-06-07T14:37:08.021Z,1.47
2019-06-07T14:39:35.059Z,1.30
2019-06-07T14:42:09.052Z,1.70
2019-06-07T14:44:31.652Z,1.57
2019-06-07T14:46:58.901Z,2.00
2019-06-07T14:49:26.479Z,1.50
2019-06-07T14:51:54.760Z,1.57
2019-06-07T14:54:22.107Z,1.30
2019-06-07T14:56:49.203Z,1.50
2019-06-07T14:59:16.606Z,1.25
2019-06-07T15:01:43.881Z,1.45
2019-06-07T15:04:10.878Z,1.37
2019-06-07T15:06:38.974Z,1.30
2019-06-07T15:09:06.830Z,1.55
2019-06-07T15:11:35.033Z,1.25
2019-06-07T15:14:02.616Z,1.32
2019-06-07T15:16:30.120Z,1.42
2019-06-07T15:18:58.499Z,1.60
2019-06-07T15:21:26.700Z,1.60
2019-06-07T15:23:54.655Z,1.37
2019-06-07T15:26:21.810Z,1.70
2019-06-07T15:28:49.276Z,1.30
2019-06-07T15:31:16.460Z,1.30
2019-06-07T15:33:43.403Z,1.80
2019-06-07T15:36:10.739Z,1.40
2019-06-07T15:38:39.112Z,1.60
2019-06-07T15:41:06.723Z,1.70
2019-06-07T15:43:35.148Z,1.62
2019-06-07T15:46:02.925Z,1.37
2019-06-07T15:48:29.959Z,1.42
2019-06-07T15:50:57.011Z,1.52
2019-06-07T15:53:24.115Z,1.37
2019-06-07T15:55:51.244Z,1.70
2019-06-07T15:58:18.406Z,1.12
2019-06-07T16:00:45.862Z,1.45
2019-06-07T16:03:12.964Z,1.17
2019-06-07T16:05:40.723Z,1.70
2019-06-07T16:08:08.089Z,1.60
2019-06-07T16:10:36.715Z,1.70
2019-06-07T16:13:04.187Z,1.72
2019-06-07T16:15:32.854Z,1.47
2019-06-07T16:18:00.110Z,1.50
2019-06-07T16:20:27.117Z,1.75
2019-06-07T16:22:54.374Z,1.52
2019-06-07T16:25:21.554Z,1.57
2019-06-07T16:27:48.580Z,1.60
2019-06-07T16:30:16.674Z,1.80
2019-06-07T16:32:45.787Z,1.40
2019-06-07T16:35:14.709Z,1.60
2019-06-07T16:37:43.007Z,1.75
2019-06-07T16:40:12.799Z,1.90
2019-06-07T16:42:40.873Z,1.92
2019-06-07T16:45:09.390Z,2.72
2019-06-07T16:47:38.835Z,1.90
2019-06-07T16:50:05.997Z,2.30
2019-06-07T16:52:33.108Z,1.95
2019-06-07T16:55:00.089Z,1.50
2019-06-07T16:57:27.241Z,1.90
2019-06-07T16:59:54.606Z,2.37
2019-06-07T17:02:21.669Z,1.62
2019-06-07T17:04:48.770Z,1.62
2019-06-07T17:07:15.850Z,1.57
2019-06-07T17:09:45.369Z,1.80
2019-06-07T17:12:11.808Z,1.57
2019-06-07T17:14:40.285Z,2.00
2019-06-07T17:17:07.635Z,2.20
2019-06-07T17:19:34.722Z,3.62
2019-06-07T17:22:02.662Z,3.10
2019-06-07T17:24:29.734Z,1.90
2019-06-07T17:26:56.719Z,2.72
2019-06-07T17:29:23.674Z,5.78
2019-06-07T17:31:50.688Z,3.83
2019-06-07T17:34:18.008Z,2.40
2019-06-07T17:36:46.360Z,2.40
2019-06-07T17:39:13.418Z,2.35
2019-06-07T17:41:52.400Z,2.35
2019-06-07T17:44:09.387Z,3.37
2019-06-07T17:46:36.510Z,3.77
2019-06-07T17:49:03.970Z,2.45
2019-06-07T17:51:31.016Z,2.30
2019-06-07T17:53:58.410Z,2.65
2019-06-07T17:56:25.497Z,2.77
2019-06-07T17:58:52.613Z,2.30
2019-06-07T18:01:19.680Z,2.10
2019-06-07T18:03:47.094Z,2.15
2019-06-07T18:06:15.590Z,2.10
2019-06-07T18:08:43.352Z,3.05
2019-06-07T18:11:10.555Z,3.08
2019-06-07T18:13:37.919Z,3.83
2019-06-07T18:16:04.924Z,2.83
2019-06-07T18:18:31.898Z,2.47
2019-06-07T18:20:59.294Z,2.72
2019-06-07T18:23:26.280Z,3.05
2019-06-07T18:25:54.638Z,2.75
2019-06-07T18:28:21.870Z,2.65
2019-06-07T18:30:48.955Z,3.47
2019-06-07T18:33:15.930Z,2.90
2019-06-07T18:35:43.058Z,3.00
2019-06-07T18:38:10.996Z,2.85
2019-06-07T18:40:38.474Z,2.90
2019-06-07T18:43:05.568Z,2.80
2019-06-07T18:45:32.612Z,3.00
2019-06-07T18:47:59.677Z,3.20
2019-06-07T18:50:26.647Z,3.27
2019-06-07T18:52:54.863Z,2.55
2019-06-07T18:55:22.055Z,3.22
2019-06-07T18:57:50.184Z,3.98
2019-06-07T19:00:19.870Z,3.35
2019-06-07T19:02:47.726Z,3.40
2019-06-07T19:05:16.510Z,3.30
2019-06-07T19:07:44.011Z,4.70
2019-06-07T19:10:13.720Z,4.53
2019-06-07T19:12:41.356Z,3.10
2019-06-07T19:15:09.521Z,2.90
2019-06-07T19:17:37.181Z,2.90
2019-06-07T19:20:04.718Z,2.40
2019-06-07T19:22:31.708Z,3.12
2019-06-07T19:25:00.462Z,3.10
2019-06-07T19:27:28.156Z,3.80
2019-06-07T19:29:56.757Z,4.00
2019-06-07T19:32:23.899Z,3.80
2019-06-07T19:34:51.203Z,4.08
2019-06-07T19:37:19.675Z,5.85
2019-06-07T19:39:46.678Z,5.58
2019-06-07T19:42:13.880Z,6.60
2019-06-07T19:44:53.060Z,5.10
2019-06-07T19:47:12.444Z,5.00
2019-06-07T19:49:40.121Z,5.35
2019-06-07T19:52:07.336Z,4.62
2019-06-07T19:54:34.382Z,4.42
2019-06-07T19:57:01.635Z,4.00
2019-06-07T19:59:28.870Z,3.30
2019-06-07T20:01:55.920Z,4.08
2019-06-07T20:04:23.499Z,3.02
2019-06-07T20:06:51.038Z,3.20
2019-06-07T20:09:18.229Z,3.33
2019-06-07T20:11:45.385Z,3.15
2019-06-07T20:14:13.594Z,3.35
2019-06-07T20:16:40.957Z,3.40
2019-06-07T20:19:08.994Z,3.50
2019-06-07T20:21:36.849Z,3.50
2019-06-07T20:24:22.513Z,3.33
2019-06-07T20:26:33.511Z,3.25
2019-06-07T20:29:01.325Z,4.08
2019-06-07T20:31:28.671Z,4.30
2019-06-07T20:33:56.311Z,3.20
2019-06-07T20:36:23.391Z,3.90
2019-06-07T20:38:50.675Z,4.40
2019-06-07T20:41:17.686Z,3.80
2019-06-07T20:43:44.631Z,3.90
2019-06-07T20:46:11.676Z,4.08
2019-06-07T20:48:38.635Z,4.35
2019-06-07T20:51:06.495Z,4.87
2019-06-07T20:53:33.914Z,4.80
2019-06-07T20:56:02.518Z,4.87
2019-06-07T20:58:30.039Z,4.12
2019-06-07T21:00:58.516Z,4.72
2019-06-07T21:03:26.007Z,5.20
2019-06-07T21:05:53.037Z,6.62
2019-06-07T21:08:20.300Z,7.20
2019-06-07T21:10:47.448Z,7.08
2019-06-07T21:13:14.453Z,7.50
2019-06-07T21:15:49.467Z,7.72
2019-06-07T21:18:19.513Z,10.63
2019-06-07T21:20:45.000Z,9.53
2019-06-07T21:23:26.619Z,9.23
2019-06-07T21:25:56.739Z,8.48
2019-06-07T21:28:25.250Z,8.18
2019-06-07T21:31:03.277Z,9.33
2019-06-07T21:33:30.067Z,10.38
2019-06-07T21:35:57.044Z,10.75
2019-06-07T21:38:24.016Z,11.08
2019-06-07T21:40:51.347Z,10.98
2019-06-07T21:43:18.991Z,10.80
2019-06-07T21:45:45.978Z,11.48
2019-06-07T21:48:14.405Z,12.50
2019-06-07T21:50:41.646Z,11.18
2019-06-07T21:53:08.642Z,10.10
2019-06-07T21:55:35.752Z,10.35
2019-06-07T21:58:03.119Z,9.65
2019-06-07T22:01:16.689Z,10.68
2019-06-07T22:03:45.888Z,9.90
2019-06-07T22:06:13.765Z,7.22
2019-06-07T22:08:41.278Z,6.53
2019-06-07T22:11:08.421Z,6.20
2019-06-07T22:13:36.132Z,6.72
2019-06-07T22:16:04.067Z,6.60
2019-06-07T22:18:31.423Z,7.15
2019-06-07T22:20:58.804Z,7.72
2019-06-07T22:23:25.859Z,7.42
2019-06-07T22:25:52.807Z,7.50
2019-06-07T22:28:19.795Z,7.85
2019-06-07T22:30:46.783Z,9.28
2019-06-07T22:33:15.051Z,10.18
2019-06-07T22:35:42.463Z,10.28
2019-06-07T22:38:10.289Z,9.93
2019-06-07T22:40:37.346Z,10.23
2019-06-07T22:43:04.451Z,10.38
2019-06-07T22:45:32.575Z,10.35
2019-06-07T22:47:59.718Z,10.18
2019-06-07T22:50:26.707Z,9.25
2019-06-07T22:52:53.785Z,8.45
2019-06-07T22:55:21.155Z,8.60
2019-06-07T22:57:54.930Z,8.33
2019-06-07T23:00:23.781Z,7.70
2019-06-07T23:02:50.855Z,7.17
2019-06-07T23:05:19.080Z,6.65
2019-06-07T23:07:46.137Z,6.55
2019-06-07T23:10:13.431Z,6.67
2019-06-07T23:12:40.641Z,7.78
2019-06-07T23:15:09.339Z,7.42
2019-06-07T23:17:36.695Z,6.80
2019-06-07T23:20:04.199Z,7.00
2019-06-07T23:22:31.490Z,6.42
2019-06-07T23:24:58.488Z,8.18
2019-06-07T23:27:25.822Z,6.47
2019-06-07T23:29:55.834Z,6.00
2019-06-07T23:32:23.573Z,6.80
2019-06-07T23:34:51.327Z,8.83
2019-06-07T23:37:21.408Z,6.75
2019-06-07T23:39:48.459Z,6.83
2019-06-07T23:42:15.902Z,6.70
2019-06-07T23:44:42.967Z,6.60
2019-06-07T23:47:15.165Z,6.97
2019-06-07T23:49:40.925Z,6.85
2019-06-07T23:52:08.450Z,6.00
2019-06-07T23:54:35.827Z,5.72
2019-06-07T23:57:03.330Z,5.65
2019-06-07T23:59:30.824Z,5.30
